Un Karadeniz — TCTD3 — position and weather

sailwx.info

Track history (hours):
 
Tides and Currents Weather Stations Pressure Air Temp Water Temp Dewpoint Dewpoint Depression Visibility Wind Speed Wind Dir Waves Ship Positions

Un Karadeniz

Last reported at 2017-Dec-11 07:30 UTC. Time now 2017-Dec-11 07:44 UTC.
Position N 44°44' E 013°30'.

Length 193 m; draft 6.7 m.

Type: Ship (hazmat cat A). MMSI: 271002571.

Date/timePositionNaut miles runAvg speedWind from/ knotsBaromVisibWave heightAir tempDewpointWater temp
2017-Dec-11 07:30N 44°44' E 013°30'918.6
2017-Dec-11 07:00N 44°51' E 013°23'1019.1
2017-Dec-11 06:31N 44°59' E 013°15'1019.1
2017-Dec-11 06:00N 45°08' E 013°08'918.9
2017-Dec-11 05:30N 45°16' E 013°04'917.5
2017-Dec-11 05:00N 45°25' E 013°08'919.2
2017-Dec-11 04:31N 45°31' E 013°18'917.5
2017-Dec-11 04:00N 45°36' E 013°28'815.1
2017-Dec-11 03:30N 45°39' E 013°38'5 9.9
2017-Dec-11 03:01N 45°39' E 013°45'0 0.1
2017-Dec-11 02:25N 45°39' E 013°45'0 0.0
2017-Dec-11 02:00N 45°39' E 013°45'0 0.0
2017-Dec-11 01:30N 45°39' E 013°45'0 0.0
2017-Dec-11 01:00N 45°39' E 013°45'0 0.0
2017-Dec-11 00:28N 45°39' E 013°45'0 0.0
2017-Dec-11 00:00N 45°39' E 013°45'0 0.0
2017-Dec-10 23:26N 45°39' E 013°45'0 0.0
2017-Dec-10 22:56N 45°39' E 013°45'0 0.0
2017-Dec-10 22:29N 45°39' E 013°45'0 0.0
2017-Dec-10 21:56N 45°39' E 013°45'0 0.0
2017-Dec-10 21:29N 45°39' E 013°45'0 0.0
2017-Dec-10 20:58N 45°39' E 013°45'0 0.0
2017-Dec-10 20:28N 45°39' E 013°45'0 0.0
2017-Dec-10 19:58N 45°39' E 013°45'0 0.0
2017-Dec-10 19:25N 45°39' E 013°45'0 0.0
2017-Dec-10 18:51N 45°39' E 013°45'0 0.0
2017-Dec-10 18:30N 45°39' E 013°45'0 0.0
2017-Dec-10 18:00N 45°39' E 013°45'0 0.0
2017-Dec-10 17:30N 45°39' E 013°45'0 0.0
2017-Dec-10 16:57N 45°39' E 013°45'0 0.0
2017-Dec-10 16:26N 45°39' E 013°45'0 0.0
2017-Dec-10 15:59N 45°39' E 013°45'0 0.0
2017-Dec-10 15:29N 45°39' E 013°45'0 0.0
2017-Dec-10 14:59N 45°39' E 013°45'0 0.0
2017-Dec-10 14:29N 45°39' E 013°45'0 0.0
2017-Dec-10 13:58N 45°39' E 013°45'0 0.0
2017-Dec-10 13:25N 45°39' E 013°45'0 0.0
2017-Dec-10 12:58N 45°39' E 013°45'0 0.0
2017-Dec-10 12:30N 45°39' E 013°45'1 1.7
2017-Dec-10 12:00N 45°39' E 013°44'611.6
2017-Dec-10 11:30N 45°36' E 013°37'816.6
2017-Dec-10 11:00N 45°32' E 013°26'1019.4
2017-Dec-10 10:30N 45°25' E 013°17'918.0
2017-Dec-10 10:00N 45°16' E 013°15'1019.8
2017-Dec-10 09:30N 45°07' E 013°19'1019.9
2017-Dec-10 09:00N 44°58' E 013°24'1019.8
2017-Dec-10 08:30N 44°49' E 013°31'1019.7
2017-Dec-10 08:00N 44°41' E 013°39'1019.8
2017-Dec-10 07:30N 44°32' E 013°46'1019.6
2017-Dec-10 07:00N 44°24' E 013°54'1019.7
2017-Dec-10 06:28N 44°16' E 014°02'64218.4
2017-Dec-08 19:36N 36°26' E 023°36'519.3
2017-Dec-08 19:20N 36°27' E 023°43'619.2
2017-Dec-08 19:00N 36°27' E 023°50'919.0
2017-Dec-08 18:31N 36°28' E 024°02'919.0
2017-Dec-08 18:01N 36°28' E 024°14'919.0
2017-Dec-08 17:31N 36°29' E 024°25'1019.3
2017-Dec-08 17:00N 36°30' E 024°37'1019.4
2017-Dec-08 16:30N 36°30' E 024°50'1019.8
2017-Dec-08 16:00N 36°31' E 025°02'1019.9
2017-Dec-08 15:30N 36°32' E 025°14'1019.9
2017-Dec-08 15:01N 36°32' E 025°26'1019.6
2017-Dec-08 14:30N 36°31' E 025°39'1019.9
2017-Dec-08 14:01N 36°30' E 025°51'1020.1
2017-Dec-08 13:30N 36°29' E 026°03'1020.1
2017-Dec-08 13:01N 36°28' E 026°16'1020.3
2017-Dec-08 12:31N 36°28' E 026°28'1020.4
2017-Dec-08 12:00N 36°28' E 026°41'  
2017-Dec-04 07:25N 44°06' E 014°04'919.6
2017-Dec-04 06:58N 44°14' E 013°57'919.4
2017-Dec-04 06:30N 44°21' E 013°50'1019.3
2017-Dec-04 06:00N 44°29' E 013°42'1019.2
2017-Dec-04 05:30N 44°37' E 013°35'919.3
2017-Dec-04 05:00N 44°45' E 013°28'1019.4
2017-Dec-04 04:30N 44°54' E 013°20'1019.2
2017-Dec-04 04:00N 45°02' E 013°13'1019.0
2017-Dec-04 03:30N 45°09' E 013°04'816.8
2017-Dec-04 03:00N 45°17' E 013°01'918.5
2017-Dec-04 02:30N 45°25' E 013°07'919.1
2017-Dec-04 02:00N 45°31' E 013°18'1019.0
2017-Dec-04 01:30N 45°37' E 013°29'918.5
2017-Dec-04 01:00N 45°39' E 013°42'2 3.8
2017-Dec-04 00:23N 45°38' E 013°45'0 0.0
2017-Dec-03 23:59N 45°38' E 013°45'0 0.0
2017-Dec-03 23:28N 45°38' E 013°45'0 0.0
2017-Dec-03 22:55N 45°38' E 013°45'0 0.0
2017-Dec-03 22:28N 45°38' E 013°45'0 0.0
2017-Dec-03 21:58N 45°38' E 013°45'0 0.0
2017-Dec-03 21:22N 45°38' E 013°45'0 0.0
2017-Dec-03 21:00N 45°38' E 013°45'0 0.0
2017-Dec-03 20:30N 45°38' E 013°45'0 0.0
2017-Dec-03 20:00N 45°38' E 013°45'0 0.0
2017-Dec-03 19:30N 45°38' E 013°45'0 0.0
2017-Dec-03 19:00N 45°38' E 013°45'0 0.0
2017-Dec-03 18:29N 45°38' E 013°45'0 0.0
2017-Dec-03 17:59N 45°38' E 013°45'0 0.0
2017-Dec-03 17:29N 45°38' E 013°45'0 0.0
2017-Dec-03 16:59N 45°38' E 013°45'0 0.0
2017-Dec-03 16:28N 45°38' E 013°45'0 0.0
2017-Dec-03 15:58N 45°38' E 013°45'0 0.0
2017-Dec-03 15:28N 45°38' E 013°45'0 0.0
2017-Dec-03 14:58N 45°38' E 013°45'0 0.0
2017-Dec-03 14:28N 45°38' E 013°45'0 0.0
2017-Dec-03 13:57N 45°38' E 013°45'0 0.0
2017-Dec-03 13:30N 45°38' E 013°45'0 0.0
2017-Dec-03 13:00N 45°38' E 013°45'0 0.0
2017-Dec-03 12:30N 45°38' E 013°45'0 0.0
2017-Dec-03 12:00N 45°38' E 013°45'0 0.0
2017-Dec-03 11:29N 45°38' E 013°45'0 0.0
2017-Dec-03 10:59N 45°38' E 013°45'0 0.7
2017-Dec-03 10:30N 45°39' E 013°45'510.8
2017-Dec-03 10:01N 45°38' E 013°37'917.2
2017-Dec-03 09:30N 45°33' E 013°27'918.1
2017-Dec-03 09:00N 45°27' E 013°17'917.6
2017-Dec-03 08:30N 45°19' E 013°14'1019.7
2017-Dec-03 08:00N 45°09' E 013°18'1019.6
2017-Dec-03 07:30N 45°00' E 013°22'1019.5
2017-Dec-03 07:01N 44°51' E 013°29'1019.6
2017-Dec-03 06:30N 44°43' E 013°36'1019.6
2017-Dec-03 06:01N 44°35' E 013°43'1019.4
2017-Dec-03 05:30N 44°27' E 013°51'1019.7
2017-Dec-03 04:59N 44°18' E 013°59'61319.5
2017-Dec-01 21:28N 36°23' E 022°27'918.0
2017-Dec-01 20:57N 36°23' E 022°39'817.9
2017-Dec-01 20:30N 36°25' E 022°49'918.3
2017-Dec-01 20:00N 36°25' E 022°60'918.5
2017-Dec-01 19:29N 36°24' E 023°11'918.3
2017-Dec-01 19:00N 36°26' E 023°22'918.8
2017-Dec-01 18:30N 36°26' E 023°34'1019.1
2017-Dec-01 18:00N 36°27' E 023°46'1019.5
2017-Dec-01 17:30N 36°28' E 023°58'1019.5
2017-Dec-01 17:00N 36°28' E 024°10'1019.3
2017-Dec-01 16:30N 36°29' E 024°22'1019.1
2017-Dec-01 16:00N 36°30' E 024°34'1019.4
2017-Dec-01 15:30N 36°31' E 024°46'1019.7
2017-Dec-01 15:00N 36°32' E 024°58'1019.7
2017-Dec-01 14:30N 36°33' E 025°10'1019.8
2017-Dec-01 14:00N 36°33' E 025°23'1019.8
2017-Dec-01 13:30N 36°32' E 025°35'1019.8
2017-Dec-01 13:00N 36°31' E 025°47'1019.9
2017-Dec-01 12:30N 36°30' E 025°59'1019.7
2017-Dec-01 12:00N 36°29' E 026°12'1019.7
2017-Dec-01 11:30N 36°28' E 026°24'1019.4
2017-Dec-01 11:00N 36°30' E 026°36'1019.7
2017-Dec-01 10:30N 36°31' E 026°48'  
Track history (hours):
 
Tides and Currents Weather Stations Pressure Air Temp Water Temp Dewpoint Dewpoint Depression Visibility Wind Speed Wind Dir Waves Ship Positions

Un Karadeniz

Last reported at 2017-Dec-11 07:30 UTC. Time now 2017-Dec-11 07:44 UTC.
Position N 44°44' E 013°30'.

Length 193 m; draft 6.7 m.

Type: Ship (hazmat cat A). MMSI: 271002571.

Date/timePositionNaut miles runAvg speedWind from/ knotsBaromVisibWave heightAir tempDewpointWater temp
2017-Dec-11 07:30N 44°44' E 013°30'918.6
2017-Dec-11 07:00N 44°51' E 013°23'1019.1
2017-Dec-11 06:31N 44°59' E 013°15'1019.1
2017-Dec-11 06:00N 45°08' E 013°08'918.9
2017-Dec-11 05:30N 45°16' E 013°04'917.5
2017-Dec-11 05:00N 45°25' E 013°08'919.2
2017-Dec-11 04:31N 45°31' E 013°18'917.5
2017-Dec-11 04:00N 45°36' E 013°28'815.1
2017-Dec-11 03:30N 45°39' E 013°38'5 9.9
2017-Dec-11 03:01N 45°39' E 013°45'0 0.1
2017-Dec-11 02:25N 45°39' E 013°45'0 0.0
2017-Dec-11 02:00N 45°39' E 013°45'0 0.0
2017-Dec-11 01:30N 45°39' E 013°45'0 0.0
2017-Dec-11 01:00N 45°39' E 013°45'0 0.0
2017-Dec-11 00:28N 45°39' E 013°45'0 0.0
2017-Dec-11 00:00N 45°39' E 013°45'0 0.0
2017-Dec-10 23:26N 45°39' E 013°45'0 0.0
2017-Dec-10 22:56N 45°39' E 013°45'0 0.0
2017-Dec-10 22:29N 45°39' E 013°45'0 0.0
2017-Dec-10 21:56N 45°39' E 013°45'0 0.0
2017-Dec-10 21:29N 45°39' E 013°45'0 0.0
2017-Dec-10 20:58N 45°39' E 013°45'0 0.0
2017-Dec-10 20:28N 45°39' E 013°45'0 0.0
2017-Dec-10 19:58N 45°39' E 013°45'0 0.0
2017-Dec-10 19:25N 45°39' E 013°45'0 0.0
2017-Dec-10 18:51N 45°39' E 013°45'0 0.0
2017-Dec-10 18:30N 45°39' E 013°45'0 0.0
2017-Dec-10 18:00N 45°39' E 013°45'0 0.0
2017-Dec-10 17:30N 45°39' E 013°45'0 0.0
2017-Dec-10 16:57N 45°39' E 013°45'0 0.0
2017-Dec-10 16:26N 45°39' E 013°45'0 0.0
2017-Dec-10 15:59N 45°39' E 013°45'0 0.0
2017-Dec-10 15:29N 45°39' E 013°45'0 0.0
2017-Dec-10 14:59N 45°39' E 013°45'0 0.0
2017-Dec-10 14:29N 45°39' E 013°45'0 0.0
2017-Dec-10 13:58N 45°39' E 013°45'0 0.0
2017-Dec-10 13:25N 45°39' E 013°45'0 0.0
2017-Dec-10 12:58N 45°39' E 013°45'0 0.0
2017-Dec-10 12:30N 45°39' E 013°45'1 1.7
2017-Dec-10 12:00N 45°39' E 013°44'611.6
2017-Dec-10 11:30N 45°36' E 013°37'816.6
2017-Dec-10 11:00N 45°32' E 013°26'1019.4
2017-Dec-10 10:30N 45°25' E 013°17'918.0
2017-Dec-10 10:00N 45°16' E 013°15'1019.8
2017-Dec-10 09:30N 45°07' E 013°19'1019.9
2017-Dec-10 09:00N 44°58' E 013°24'1019.8
2017-Dec-10 08:30N 44°49' E 013°31'1019.7
2017-Dec-10 08:00N 44°41' E 013°39'1019.8
2017-Dec-10 07:30N 44°32' E 013°46'1019.6
2017-Dec-10 07:00N 44°24' E 013°54'1019.7
2017-Dec-10 06:28N 44°16' E 014°02'64218.4
2017-Dec-08 19:36N 36°26' E 023°36'519.3
2017-Dec-08 19:20N 36°27' E 023°43'619.2
2017-Dec-08 19:00N 36°27' E 023°50'919.0
2017-Dec-08 18:31N 36°28' E 024°02'919.0
2017-Dec-08 18:01N 36°28' E 024°14'919.0
2017-Dec-08 17:31N 36°29' E 024°25'1019.3
2017-Dec-08 17:00N 36°30' E 024°37'1019.4
2017-Dec-08 16:30N 36°30' E 024°50'1019.8
2017-Dec-08 16:00N 36°31' E 025°02'1019.9
2017-Dec-08 15:30N 36°32' E 025°14'1019.9
2017-Dec-08 15:01N 36°32' E 025°26'1019.6
2017-Dec-08 14:30N 36°31' E 025°39'1019.9
2017-Dec-08 14:01N 36°30' E 025°51'1020.1
2017-Dec-08 13:30N 36°29' E 026°03'1020.1
2017-Dec-08 13:01N 36°28' E 026°16'1020.3
2017-Dec-08 12:31N 36°28' E 026°28'1020.4
2017-Dec-08 12:00N 36°28' E 026°41'  
2017-Dec-04 07:25N 44°06' E 014°04'919.6
2017-Dec-04 06:58N 44°14' E 013°57'919.4
2017-Dec-04 06:30N 44°21' E 013°50'1019.3
2017-Dec-04 06:00N 44°29' E 013°42'1019.2
2017-Dec-04 05:30N 44°37' E 013°35'919.3
2017-Dec-04 05:00N 44°45' E 013°28'1019.4
2017-Dec-04 04:30N 44°54' E 013°20'1019.2
2017-Dec-04 04:00N 45°02' E 013°13'1019.0
2017-Dec-04 03:30N 45°09' E 013°04'816.8
2017-Dec-04 03:00N 45°17' E 013°01'918.5
2017-Dec-04 02:30N 45°25' E 013°07'919.1
2017-Dec-04 02:00N 45°31' E 013°18'1019.0
2017-Dec-04 01:30N 45°37' E 013°29'918.5
2017-Dec-04 01:00N 45°39' E 013°42'2 3.8
2017-Dec-04 00:23N 45°38' E 013°45'0 0.0
2017-Dec-03 23:59N 45°38' E 013°45'0 0.0
2017-Dec-03 23:28N 45°38' E 013°45'0 0.0
2017-Dec-03 22:55N 45°38' E 013°45'0 0.0
2017-Dec-03 22:28N 45°38' E 013°45'0 0.0
2017-Dec-03 21:58N 45°38' E 013°45'0 0.0
2017-Dec-03 21:22N 45°38' E 013°45'0 0.0
2017-Dec-03 21:00N 45°38' E 013°45'0 0.0
2017-Dec-03 20:30N 45°38' E 013°45'0 0.0
2017-Dec-03 20:00N 45°38' E 013°45'0 0.0
2017-Dec-03 19:30N 45°38' E 013°45'0 0.0
2017-Dec-03 19:00N 45°38' E 013°45'0 0.0
2017-Dec-03 18:29N 45°38' E 013°45'0 0.0
2017-Dec-03 17:59N 45°38' E 013°45'0 0.0
2017-Dec-03 17:29N 45°38' E 013°45'0 0.0
2017-Dec-03 16:59N 45°38' E 013°45'0 0.0
2017-Dec-03 16:28N 45°38' E 013°45'0 0.0
2017-Dec-03 15:58N 45°38' E 013°45'0 0.0
2017-Dec-03 15:28N 45°38' E 013°45'0 0.0
2017-Dec-03 14:58N 45°38' E 013°45'0 0.0
2017-Dec-03 14:28N 45°38' E 013°45'0 0.0
2017-Dec-03 13:57N 45°38' E 013°45'0 0.0
2017-Dec-03 13:30N 45°38' E 013°45'0 0.0
2017-Dec-03 13:00N 45°38' E 013°45'0 0.0
2017-Dec-03 12:30N 45°38' E 013°45'0 0.0
2017-Dec-03 12:00N 45°38' E 013°45'0 0.0
2017-Dec-03 11:29N 45°38' E 013°45'0 0.0
2017-Dec-03 10:59N 45°38' E 013°45'0 0.7
2017-Dec-03 10:30N 45°39' E 013°45'510.8
2017-Dec-03 10:01N 45°38' E 013°37'917.2
2017-Dec-03 09:30N 45°33' E 013°27'918.1
2017-Dec-03 09:00N 45°27' E 013°17'917.6
2017-Dec-03 08:30N 45°19' E 013°14'1019.7
2017-Dec-03 08:00N 45°09' E 013°18'1019.6
2017-Dec-03 07:30N 45°00' E 013°22'1019.5
2017-Dec-03 07:01N 44°51' E 013°29'1019.6
2017-Dec-03 06:30N 44°43' E 013°36'1019.6
2017-Dec-03 06:01N 44°35' E 013°43'1019.4
2017-Dec-03 05:30N 44°27' E 013°51'1019.7
2017-Dec-03 04:59N 44°18' E 013°59'61319.5
2017-Dec-01 21:28N 36°23' E 022°27'918.0
2017-Dec-01 20:57N 36°23' E 022°39'817.9
2017-Dec-01 20:30N 36°25' E 022°49'918.3
2017-Dec-01 20:00N 36°25' E 022°60'918.5
2017-Dec-01 19:29N 36°24' E 023°11'918.3
2017-Dec-01 19:00N 36°26' E 023°22'918.8
2017-Dec-01 18:30N 36°26' E 023°34'1019.1
2017-Dec-01 18:00N 36°27' E 023°46'1019.5
2017-Dec-01 17:30N 36°28' E 023°58'1019.5
2017-Dec-01 17:00N 36°28' E 024°10'1019.3
2017-Dec-01 16:30N 36°29' E 024°22'1019.1
2017-Dec-01 16:00N 36°30' E 024°34'1019.4
2017-Dec-01 15:30N 36°31' E 024°46'1019.7
2017-Dec-01 15:00N 36°32' E 024°58'1019.7
2017-Dec-01 14:30N 36°33' E 025°10'1019.8
2017-Dec-01 14:00N 36°33' E 025°23'1019.8
2017-Dec-01 13:30N 36°32' E 025°35'1019.8
2017-Dec-01 13:00N 36°31' E 025°47'1019.9
2017-Dec-01 12:30N 36°30' E 025°59'1019.7
2017-Dec-01 12:00N 36°29' E 026°12'1019.7
2017-Dec-01 11:30N 36°28' E 026°24'1019.4
2017-Dec-01 11:00N 36°30' E 026°36'1019.7
2017-Dec-01 10:30N 36°31' E 026°48'  

Dump ship's entire track history